| time (UTC) | temp F | wind direction | speed knots | gust knots | rain 1hr in | rain 24hr in | rain mn in | humidity % | barometer mb |
| 20260502195004 | 53 | 0 | 0.0 | 0.0 | 0.00 | 0.33 | 0.33 | 91 | 1011.0 |
| 20260502194504 | 53 | 0 | 0.0 | 0.0 | 0.01 | 0.33 | 0.33 | 91 | 1011.0 |
| 20260502194025 | 53 | 0 | 0.0 | 0.0 | 0.01 | 0.33 | 0.33 | 91 | 1011.0 |
| 20260502193504 | 53 | 0 | 0.0 | 0.0 | 0.01 | 0.33 | 0.33 | 91 | 1011.0 |
| 20260502193004 | 53 | 0 | 0.0 | 0.0 | 0.01 | 0.33 | 0.33 | 91 | 1011.0 |
| 20260502192504 | 53 | 0 | 0.0 | 0.0 | 0.01 | 0.33 | 0.33 | 91 | 1011.1 |
| 20260502192004 | 53 | 0 | 0.0 | 0.0 | 0.01 | 0.33 | 0.33 | 91 | 1011.1 |
| 20260502191504 | 53 | 0 | 0.0 | 0.0 | 0.01 | 0.33 | 0.33 | 91 | 1011.1 |
| 20260502191004 | 53 | 0 | 0.0 | 0.0 | 0.02 | 0.33 | 0.33 | 90 | 1011.1 |
| 20260502190504 | 53 | 0 | 0.0 | 0.0 | 0.02 | 0.33 | 0.33 | 90 | 1011.1 |
| 20260502190004 | 53 | 0 | 0.0 | 0.0 | 0.02 | 0.33 | 0.33 | 90 | 1011.2 |
| 20260502185525 | 53 | 0 | 0.0 | 0.0 | 0.02 | 0.33 | 0.33 | 90 | 1011.1 |
| 20260502185025 | 53 | 0 | 0.0 | 0.0 | 0.02 | 0.33 | 0.33 | 90 | 1011.2 |
| 20260502184504 | 53 | 216 | 0.0 | 0.9 | 0.02 | 0.32 | 0.32 | 90 | 1011.2 |
| 20260502184004 | 53 | 216 | 0.0 | 0.9 | 0.02 | 0.32 | 0.32 | 90 | 1011.3 |
| 20260502183504 | 53 | 198 | 0.0 | 0.9 | 0.02 | 0.32 | 0.32 | 90 | 1011.3 |
| 20260502183004 | 53 | 198 | 0.0 | 1.7 | 0.02 | 0.32 | 0.32 | 90 | 1011.4 |
| 20260502182503 | 54 | 198 | 0.0 | 1.7 | 0.02 | 0.32 | 0.32 | 90 | 1011.4 |
| 20260502182004 | 54 | 0 | 0.0 | 0.0 | 0.02 | 0.32 | 0.32 | 90 | 1011.4 |
| 20260502181504 | 54 | 0 | 0.0 | 0.0 | 0.02 | 0.32 | 0.32 | 90 | 1011.4 |
| 20260502181004 | 54 | 0 | 0.0 | 0.0 | 0.02 | 0.31 | 0.31 | 89 | 1011.4 |
| 20260502180504 | 54 | 0 | 0.0 | 0.0 | 0.02 | 0.31 | 0.31 | 89 | 1011.4 |
| 20260502170503 | 55 | 0 | 0.0 | 0.0 | 0.06 | 0.29 | 0.29 | 88 | 1011.8 |
| 20260502164003 | 55 | 0 | 0.0 | 0.0 | 0.07 | 0.27 | 0.27 | 88 | 1012.1 |
| 20260502163504 | 55 | 0 | 0.0 | 0.0 | 0.07 | 0.26 | 0.26 | 88 | 1012.1 |
| 20260502163004 | 55 | 0 | 0.0 | 0.0 | 0.09 | 0.26 | 0.26 | 89 | 1012.1 |
| 20260502162504 | 55 | 0 | 0.0 | 0.0 | 0.09 | 0.26 | 0.26 | 88 | 1012.1 |
| 20260502162004 | 55 | 0 | 0.0 | 0.0 | 0.10 | 0.25 | 0.25 | 88 | 1012.1 |
| 20260502161504 | 55 | 0 | 0.0 | 0.0 | 0.10 | 0.24 | 0.24 | 88 | 1012.1 |
| 20260502161004 | 55 | 0 | 0.0 | 0.0 | 0.11 | 0.24 | 0.24 | 88 | 1012.2 |
| 20260502160503 | 55 | 0 | 0.0 | 0.0 | 0.12 | 0.24 | 0.24 | 87 | 1012.2 |
| 20260502152004 | 55 | 0 | 0.0 | 0.0 | 0.13 | 0.15 | 0.15 | 86 | 1013.0 |
| 20260502151524 | 55 | 0 | 0.0 | 0.0 | 0.13 | 0.14 | 0.14 | 86 | 1013.0 |
| 20260502151003 | 55 | 0 | 0.0 | 0.0 | 0.12 | 0.13 | 0.13 | 85 | 1013.0 |
| 20260502150524 | 55 | 0 | 0.0 | 0.0 | 0.11 | 0.12 | 0.12 | 85 | 1013.0 |
| 20260502130528 | 59 | 176 | 0.9 | 7.0 | 0.00 | 0.00 | 0.00 | 75 | 1014.0 |
| 20260502123506 | 60 | 188 | 0.9 | 5.2 | 0.00 | 0.00 | 0.00 | 75 | 1014.1 |
| 20260502123006 | 60 | 234 | 0.0 | 5.2 | 0.00 | 0.00 | 0.00 | 76 | 1014.2 |
| 20260502122527 | 60 | 262 | 0.0 | 2.6 | 0.00 | 0.00 | 0.00 | 77 | 1014.2 |
| 20260502122006 | 60 | 263 | 0.9 | 6.1 | 0.00 | 0.00 | 0.00 | 76 | 1014.3 |
| 20260502121527 | 60 | 268 | 0.9 | 6.1 | 0.00 | 0.00 | 0.00 | 76 | 1014.5 |
| 20260502121006 | 60 | 270 | 0.9 | 5.2 | 0.00 | 0.00 | 0.00 | 76 | 1014.5 |
| 20260502120506 | 59 | 271 | 0.9 | 5.2 | 0.00 | 0.00 | 0.00 | 77 | 1014.6 |
| 20260502115506 | 59 | 272 | 0.9 | 6.1 | 0.00 | 0.00 | 0.00 | 76 | 1014.8 |
| 20260502115027 | 60 | 261 | 0.9 | 5.2 | 0.00 | 0.00 | 0.00 | 76 | 1014.8 |
| 20260502114527 | 59 | 273 | 0.9 | 5.2 | 0.00 | 0.00 | 0.00 | 77 | 1014.9 |
| 20260502114006 | 59 | 283 | 0.9 | 5.2 | 0.00 | 0.00 | 0.00 | 76 | 1015.0 |
| 20260502113506 | 60 | 287 | 1.7 | 6.1 | 0.00 | 0.00 | 0.00 | 76 | 1015.1 |
| 20260502113006 | 60 | 288 | 1.7 | 6.1 | 0.00 | 0.00 | 0.00 | 75 | 1015.0 |
| 20260502112506 | 60 | 284 | 1.7 | 6.1 | 0.00 | 0.00 | 0.00 | 75 | 1015.1 |
| 20260502112027 | 60 | 284 | 1.7 | 6.1 | 0.00 | 0.00 | 0.00 | 75 | 1015.1 |
| 20260502111506 | 60 | 291 | 0.9 | 6.1 | 0.00 | 0.00 | 0.00 | 76 | 1015.2 |
| 20260502111006 | 60 | 283 | 0.9 | 4.3 | 0.00 | 0.00 | 0.00 | 75 | 1015.4 |
| 20260502110506 | 60 | 276 | 0.9 | 3.5 | 0.00 | 0.00 | 0.00 | 75 | 1015.5 |
| 20260502110006 | 60 | 291 | 0.0 | 3.5 | 0.00 | 0.00 | 0.00 | 74 | 1015.6 |
| 20260502105506 | 60 | 319 | 0.9 | 3.5 | 0.00 | 0.00 | 0.00 | 76 | 1015.6 |
| 20260502105027 | 61 | 316 | 0.0 | 3.5 | 0.00 | 0.00 | 0.00 | 74 | 1015.7 |
| 20260502104506 | 61 | 341 | 0.0 | 2.6 | 0.00 | 0.00 | 0.00 | 74 | 1015.7 |
| 20260502104027 | 61 | 341 | 0.0 | 2.6 | 0.00 | 0.00 | 0.00 | 74 | 1015.7 |
| 20260502103506 | 61 | 343 | 0.0 | 2.6 | 0.00 | 0.00 | 0.00 | 76 | 1015.8 |
| 20260502103006 | 60 | 313 | 0.0 | 2.6 | 0.00 | 0.00 | 0.00 | 76 | 1015.9 |
| 20260502102527 | 60 | 269 | 0.9 | 2.6 | 0.00 | 0.00 | 0.00 | 76 | 1015.9 |
| 20260502102006 | 59 | 241 | 0.0 | 2.6 | 0.00 | 0.00 | 0.00 | 76 | 1015.9 |
| 20260502101506 | 59 | 233 | 0.0 | 3.5 | 0.00 | 0.00 | 0.00 | 77 | 1016.0 |
| 20260502101006 | 59 | 163 | 0.9 | 6.1 | 0.00 | 0.00 | 0.00 | 76 | 1016.0 |
| 20260502100506 | 59 | 157 | 0.9 | 6.1 | 0.00 | 0.00 | 0.00 | 76 | 1016.0 |
| 20260502091506 | 59 | 343 | 0.0 | 3.5 | 0.00 | 0.00 | 0.00 | 78 | 1016.4 |
| 20260502091006 | 59 | 129 | 0.0 | 7.0 | 0.00 | 0.00 | 0.00 | 79 | 1016.3 |
| 20260502090506 | 58 | 141 | 0.0 | 7.0 | 0.00 | 0.00 | 0.00 | 80 | 1016.3 |
| 20260502071506 | 53 | 122 | 0.9 | 5.2 | 0.00 | 0.08 | 0.00 | 88 | 1017.2 |
| 20260502071006 | 53 | 130 | 0.9 | 5.2 | 0.00 | 0.08 | 0.00 | 88 | 1017.2 |
| 20260502070505 | 52 | 140 | 0.9 | 5.2 | 0.00 | 0.08 | 0.00 | 89 | 1017.2 |
| 20260502070005 | 52 | 148 | 0.0 | 3.5 | 0.00 | 0.08 | 0.00 | 89 | 1017.2 |
| 20260502065505 | 52 | 123 | 0.0 | 2.6 | 0.00 | 0.08 | 0.00 | 89 | 1017.2 |
| 20260502065027 | 51 | 121 | 0.0 | 1.7 | 0.00 | 0.08 | 0.00 | 89 | 1017.2 |
| 20260502064505 | 51 | 133 | 0.0 | 1.7 | 0.00 | 0.08 | 0.00 | 89 | 1017.2 |
| 20260502064006 | 51 | 136 | 0.0 | 3.5 | 0.00 | 0.08 | 0.00 | 89 | 1017.3 |
| 20260502063505 | 51 | 135 | 0.0 | 3.5 | 0.00 | 0.09 | 0.00 | 89 | 1017.2 |
| 20260502063005 | 50 | 0 | 0.0 | 0.0 | 0.00 | 0.09 | 0.00 | 89 | 1017.3 |
| 20260502062506 | 50 | 109 | 0.0 | 1.7 | 0.00 | 0.09 | 0.00 | 89 | 1017.3 |
| 20260502062006 | 50 | 111 | 0.0 | 3.5 | 0.00 | 0.09 | 0.00 | 89 | 1017.3 |
| 20260502061505 | 50 | 114 | 0.9 | 3.5 | 0.00 | 0.09 | 0.00 | 89 | 1017.4 |
| 20260502061005 | 50 | 117 | 0.0 | 2.6 | 0.00 | 0.09 | 0.00 | 89 | 1017.3 |
| 20260502060505 | 49 | 107 | 0.0 | 2.6 | 0.00 | 0.09 | 0.00 | 89 | 1017.4 |
| 20260502060026 | 49 | 99 | 0.0 | 2.6 | 0.00 | 0.09 | 0.00 | 88 | 1017.5 |
| 20260502055505 | 49 | 140 | 0.0 | 1.7 | 0.00 | 0.09 | 0.00 | 88 | 1017.5 |
| 20260502055005 | 50 | 140 | 0.0 | 1.7 | 0.00 | 0.09 | 0.00 | 89 | 1017.6 |
| 20260502054505 | 49 | 133 | 0.0 | 6.1 | 0.00 | 0.09 | 0.00 | 89 | 1017.6 |
| 20260502054005 | 49 | 121 | 0.0 | 6.1 | 0.00 | 0.09 | 0.00 | 89 | 1017.6 |
| 20260502053505 | 48 | 116 | 0.0 | 3.5 | 0.00 | 0.09 | 0.00 | 89 | 1017.6 |
| 20260502053005 | 48 | 116 | 0.9 | 4.3 | 0.00 | 0.09 | 0.00 | 89 | 1017.6 |
| 20260502052505 | 48 | 117 | 0.9 | 4.3 | 0.00 | 0.09 | 0.00 | 88 | 1017.6 |
| 20260502052005 | 48 | 106 | 0.0 | 3.5 | 0.00 | 0.09 | 0.00 | 88 | 1017.7 |
| 20260502051505 | 47 | 92 | 0.0 | 3.5 | 0.00 | 0.09 | 0.00 | 88 | 1017.7 |
| 20260502051005 | 47 | 90 | 0.0 | 2.6 | 0.00 | 0.09 | 0.00 | 88 | 1017.7 |
| 20260502050505 | 47 | 154 | 0.0 | 0.9 | 0.00 | 0.09 | 0.00 | 88 | 1017.7 |
| 20260502050005 | 47 | 154 | 0.0 | 0.9 | 0.00 | 0.09 | 0.00 | 88 | 1017.7 |
| 20260502045505 | 47 | 0 | 0.0 | 0.0 | 0.00 | 0.09 | 0.00 | 87 | 1017.6 |
| 20260502045005 | 47 | 0 | 0.0 | 0.0 | 0.00 | 0.09 | 0.00 | 87 | 1017.7 |
| 20260502044505 | 47 | 0 | 0.0 | 0.0 | 0.00 | 0.09 | 0.00 | 87 | 1017.6 |
| 20260502044005 | 48 | 155 | 0.0 | 0.9 | 0.00 | 0.09 | 0.00 | 88 | 1017.6 |
| 20260502043505 | 48 | 155 | 0.0 | 0.9 | 0.00 | 0.09 | 0.00 | 88 | 1017.6 |
| 20260502043005 | 47 | 154 | 0.0 | 4.3 | 0.00 | 0.09 | 0.00 | 87 | 1017.6 |
| 20260502042505 | 47 | 157 | 0.9 | 4.3 | 0.00 | 0.09 | 0.00 | 87 | 1017.6 |
| 20260502042005 | 48 | 152 | 0.9 | 4.3 | 0.00 | 0.09 | 0.00 | 87 | 1017.5 |
| 20260502041505 | 48 | 148 | 0.0 | 4.3 | 0.00 | 0.09 | 0.00 | 87 | 1017.4 |
| 20260502041005 | 48 | 0 | 0.0 | 0.0 | 0.00 | 0.09 | 0.00 | 87 | 1017.4 |
| 20260502040505 | 48 | 162 | 0.0 | 0.9 | 0.00 | 0.09 | 0.00 | 87 | 1017.5 |
| 20260502040005 | 48 | 162 | 0.0 | 0.9 | 0.00 | 0.09 | 0.00 | 87 | 1017.6 |
| 20260502035505 | 48 | 0 | 0.0 | 0.0 | 0.00 | 0.09 | 0.00 | 87 | 1017.7 |
| 20260502035005 | 48 | 0 | 0.0 | 0.0 | 0.00 | 0.09 | 0.00 | 87 | 1017.7 |
| 20260502034505 | 48 | 0 | 0.0 | 0.0 | 0.00 | 0.09 | 0.00 | 87 | 1017.7 |
| 20260502034005 | 48 | 0 | 0.0 | 0.0 | 0.00 | 0.09 | 0.00 | 87 | 1017.8 |
| 20260502033505 | 48 | 0 | 0.0 | 0.0 | 0.00 | 0.09 | 0.00 | 87 | 1017.8 |
| 20260502033005 | 48 | 0 | 0.0 | 0.0 | 0.00 | 0.09 | 0.00 | 87 | 1017.9 |
| 20260502032526 | 48 | 0 | 0.0 | 0.0 | 0.00 | 0.09 | 0.00 | 87 | 1017.9 |
| 20260502032005 | 48 | 0 | 0.0 | 0.0 | 0.00 | 0.09 | 0.00 | 87 | 1018.0 |
| 20260502031505 | 48 | 0 | 0.0 | 0.0 | 0.00 | 0.09 | 0.00 | 87 | 1018.0 |
| 20260502031026 | 48 | 0 | 0.0 | 0.0 | 0.00 | 0.09 | 0.00 | 86 | 1018.0 |
| 20260502030505 | 49 | 0 | 0.0 | 0.0 | 0.00 | 0.09 | 0.00 | 86 | 1018.1 |
| 20260502030005 | 49 | 0 | 0.0 | 0.0 | 0.00 | 0.09 | 0.00 | 86 | 1018.1 |
| 20260502025526 | 49 | 0 | 0.0 | 0.0 | 0.00 | 0.09 | 0.00 | 86 | 1018.2 |
| 20260502025005 | 49 | 0 | 0.0 | 0.0 | 0.00 | 0.09 | 0.00 | 86 | 1018.2 |
| 20260502024505 | 49 | 0 | 0.0 | 0.0 | 0.00 | 0.09 | 0.00 | 86 | 1018.3 |
| 20260502024005 | 49 | 0 | 0.0 | 0.0 | 0.00 | 0.09 | 0.00 | 86 | 1018.4 |
| 20260502023505 | 49 | 0 | 0.0 | 0.0 | 0.00 | 0.09 | 0.00 | 86 | 1018.4 |
| 20260502023005 | 49 | 0 | 0.0 | 0.0 | 0.00 | 0.09 | 0.00 | 86 | 1018.5 |
| 20260502022505 | 49 | 0 | 0.0 | 0.0 | 0.00 | 0.09 | 0.00 | 86 | 1018.5 |
| 20260502022005 | 49 | 0 | 0.0 | 0.0 | 0.00 | 0.09 | 0.00 | 86 | 1018.5 |
| 20260502021505 | 49 | 0 | 0.0 | 0.0 | 0.00 | 0.09 | 0.00 | 85 | 1018.6 |
| 20260502021005 | 50 | 0 | 0.0 | 0.0 | 0.00 | 0.09 | 0.00 | 85 | 1018.6 |
| 20260502020505 | 50 | 0 | 0.0 | 0.0 | 0.00 | 0.09 | 0.00 | 85 | 1018.7 |
| 20260502020005 | 50 | 0 | 0.0 | 0.0 | 0.00 | 0.09 | 0.00 | 85 | 1018.7 |
| 20260502015504 | 50 | 0 | 0.0 | 0.0 | 0.00 | 0.09 | 0.00 | 85 | 1018.7 |
| 20260502015026 | 50 | 0 | 0.0 | 0.0 | 0.00 | 0.09 | 0.00 | 85 | 1018.7 |
| 20260502014526 | 51 | 0 | 0.0 | 0.0 | 0.00 | 0.09 | 0.00 | 85 | 1018.8 |
| 20260502014005 | 51 | 0 | 0.0 | 0.0 | 0.00 | 0.09 | 0.00 | 85 | 1018.9 |
| 20260502013505 | 51 | 0 | 0.0 | 0.0 | 0.00 | 0.09 | 0.00 | 85 | 1019.0 |
| 20260502013005 | 51 | 0 | 0.0 | 0.0 | 0.00 | 0.09 | 0.00 | 85 | 1019.0 |
| 20260502012525 | 51 | 0 | 0.0 | 0.0 | 0.00 | 0.09 | 0.00 | 85 | 1019.0 |
| 20260502012005 | 51 | 0 | 0.0 | 0.0 | 0.00 | 0.09 | 0.00 | 85 | 1019.1 |
| 20260502011526 | 51 | 0 | 0.0 | 0.0 | 0.00 | 0.09 | 0.00 | 85 | 1019.1 |
| 20260502011005 | 51 | 0 | 0.0 | 0.0 | 0.00 | 0.09 | 0.00 | 85 | 1019.2 |
| 20260502010505 | 51 | 0 | 0.0 | 0.0 | 0.00 | 0.09 | 0.00 | 85 | 1019.2 |
| 20260502010026 | 51 | 0 | 0.0 | 0.0 | 0.00 | 0.09 | 0.00 | 85 | 1019.2 |
| 20260502005505 | 51 | 0 | 0.0 | 0.0 | 0.00 | 0.09 | 0.00 | 85 | 1019.2 |
| 20260502005005 | 51 | 0 | 0.0 | 0.0 | 0.00 | 0.09 | 0.00 | 85 | 1019.3 |
| 20260502004525 | 51 | 0 | 0.0 | 0.0 | 0.00 | 0.09 | 0.00 | 85 | 1019.4 |
| 20260502004005 | 51 | 0 | 0.0 | 0.0 | 0.00 | 0.09 | 0.00 | 85 | 1019.4 |
| 20260502003505 | 51 | 0 | 0.0 | 0.0 | 0.00 | 0.09 | 0.00 | 85 | 1019.4 |
| 20260502003004 | 51 | 0 | 0.0 | 0.0 | 0.00 | 0.09 | 0.00 | 85 | 1019.4 |
| 20260502002505 | 51 | 0 | 0.0 | 0.0 | 0.00 | 0.09 | 0.00 | 85 | 1019.4 |
| 20260502002005 | 51 | 0 | 0.0 | 0.0 | 0.00 | 0.09 | 0.00 | 85 | 1019.5 |
| 20260502001504 | 51 | 0 | 0.0 | 0.0 | 0.00 | 0.09 | 0.00 | 85 | 1019.5 |
| 20260502001005 | 51 | 0 | 0.0 | 0.0 | 0.00 | 0.09 | 0.00 | 85 | 1019.5 |
| 20260502000504 | 51 | 0 | 0.0 | 0.0 | 0.00 | 0.09 | 0.00 | 85 | 1019.5 |
| 20260502000005 | 51 | 0 | 0.0 | 0.0 | 0.00 | 0.09 | 0.00 | 85 | 1019.5 |
| 20260501235504 | 51 | 0 | 0.0 | 0.0 | 0.00 | 0.09 | 0.00 | 85 | 1019.6 |
| 20260501235004 | 51 | 0 | 0.0 | 0.0 | 0.00 | 0.09 | 0.00 | 85 | 1019.6 |
| 20260501234505 | 51 | 0 | 0.0 | 0.0 | 0.00 | 0.09 | 0.00 | 85 | 1019.6 |
| 20260501234005 | 51 | 0 | 0.0 | 0.0 | 0.00 | 0.09 | 0.00 | 85 | 1019.6 |
| 20260501233504 | 51 | 0 | 0.0 | 0.0 | 0.00 | 0.09 | 0.00 | 85 | 1019.6 |
| 20260501233025 | 51 | 0 | 0.0 | 0.0 | 0.00 | 0.09 | 0.00 | 85 | 1019.6 |
| 20260501232504 | 50 | 150 | 0.0 | 1.7 | 0.00 | 0.09 | 0.00 | 85 | 1019.6 |
| 20260501232025 | 50 | 150 | 0.0 | 1.7 | 0.00 | 0.09 | 0.00 | 85 | 1019.7 |
| 20260501231504 | 50 | 0 | 0.0 | 4.3 | 0.00 | 0.09 | 0.00 | 85 | 1019.7 |
| 20260501231025 | 50 | 150 | 0.0 | 4.3 | 0.00 | 0.09 | 0.00 | 85 | 1019.7 |
| 20260501230526 | 51 | 155 | 0.9 | 4.3 | 0.00 | 0.09 | 0.00 | 85 | 1019.7 |
| 20260501230028 | 51 | 156 | 0.9 | 4.3 | 0.00 | 0.09 | 0.00 | 85 | 1019.8 |
| 20260501225526 | 51 | 164 | 0.0 | 3.5 | 0.00 | 0.09 | 0.09 | 84 | 1019.8 |
| 20260501225025 | 51 | 0 | 0.0 | 0.0 | 0.00 | 0.09 | 0.09 | 84 | 1019.9 |
| 20260501224505 | 51 | 0 | 0.0 | 0.0 | 0.00 | 0.09 | 0.09 | 85 | 1020.0 |
| 20260501224004 | 51 | 164 | 0.0 | 0.9 | 0.00 | 0.09 | 0.09 | 85 | 1020.0 |
| 20260501223504 | 51 | 164 | 0.0 | 0.9 | 0.00 | 0.09 | 0.09 | 84 | 1020.1 |
| 20260501223025 | 51 | 163 | 0.0 | 0.9 | 0.00 | 0.09 | 0.09 | 84 | 1020.1 |
| 20260501222504 | 51 | 163 | 0.0 | 0.9 | 0.00 | 0.09 | 0.09 | 84 | 1020.1 |
| 20260501222004 | 51 | 0 | 0.0 | 0.0 | 0.00 | 0.09 | 0.09 | 84 | 1020.1 |
| 20260501221504 | 52 | 0 | 0.0 | 0.0 | 0.00 | 0.09 | 0.09 | 84 | 1020.1 |
| 20260501221004 | 52 | 0 | 0.0 | 0.0 | 0.00 | 0.09 | 0.09 | 84 | 1020.2 |
| 20260501220504 | 52 | 0 | 0.0 | 0.0 | 0.00 | 0.09 | 0.09 | 84 | 1020.1 |
| 20260501220005 | 52 | 0 | 0.0 | 0.0 | 0.00 | 0.09 | 0.09 | 84 | 1020.2 |
| 20260501215504 | 52 | 0 | 0.0 | 0.0 | 0.00 | 0.09 | 0.09 | 84 | 1020.2 |
| 20260501215025 | 52 | 0 | 0.0 | 0.0 | 0.00 | 0.09 | 0.09 | 84 | 1020.2 |
| 20260501214504 | 52 | 0 | 0.0 | 0.0 | 0.00 | 0.09 | 0.09 | 84 | 1020.2 |
| 20260501214025 | 52 | 0 | 0.0 | 0.0 | 0.00 | 0.09 | 0.09 | 84 | 1020.2 |
| 20260501213504 | 52 | 0 | 0.0 | 0.0 | 0.00 | 0.09 | 0.09 | 84 | 1020.2 |
| 20260501213005 | 52 | 164 | 0.0 | 0.9 | 0.00 | 0.09 | 0.09 | 84 | 1020.2 |
| 20260501212525 | 52 | 164 | 0.0 | 0.9 | 0.00 | 0.09 | 0.09 | 83 | 1020.1 |
| 20260501212004 | 52 | 0 | 0.0 | 0.0 | 0.00 | 0.09 | 0.09 | 84 | 1020.1 |
| 20260501211504 | 52 | 0 | 0.0 | 0.0 | 0.00 | 0.09 | 0.09 | 84 | 1020.1 |
| 20260501211005 | 52 | 0 | 0.0 | 0.0 | 0.00 | 0.09 | 0.09 | 84 | 1020.1 |
| 20260501210504 | 52 | 0 | 0.0 | 0.0 | 0.00 | 0.09 | 0.09 | 84 | 1020.1 |
| 20260501210004 | 52 | 0 | 0.0 | 0.0 | 0.00 | 0.09 | 0.09 | 84 | 1020.0 |
| 20260501205504 | 51 | 165 | 0.0 | 1.7 | 0.00 | 0.09 | 0.09 | 84 | 1020.0 |
| 20260501205004 | 51 | 165 | 0.0 | 1.7 | 0.00 | 0.09 | 0.09 | 84 | 1019.9 |
| 20260501204505 | 51 | 0 | 0.0 | 0.0 | 0.00 | 0.09 | 0.09 | 84 | 1019.9 |
| 20260501204004 | 51 | 165 | 0.0 | 1.7 | 0.00 | 0.09 | 0.09 | 84 | 1019.9 |
| 20260501203504 | 52 | 165 | 0.0 | 1.7 | 0.00 | 0.09 | 0.09 | 84 | 1019.9 |
| 20260501203025 | 52 | 0 | 0.0 | 0.0 | 0.00 | 0.09 | 0.09 | 84 | 1019.9 |
| 20260501202504 | 52 | 0 | 0.0 | 0.0 | 0.00 | 0.09 | 0.09 | 84 | 1019.9 |
| 20260501202004 | 52 | 0 | 0.0 | 0.0 | 0.00 | 0.09 | 0.09 | 84 | 1019.9 |
| 20260501201525 | 52 | 0 | 0.0 | 0.0 | 0.00 | 0.09 | 0.09 | 84 | 1019.9 |
| 20260501201004 | 51 | 0 | 0.0 | 0.0 | 0.00 | 0.09 | 0.09 | 84 | 1019.8 |
| 20260501200525 | 51 | 0 | 0.0 | 0.0 | 0.00 | 0.09 | 0.09 | 84 | 1019.9 |
| 20260501200004 | 51 | 0 | 0.0 | 0.0 | 0.00 | 0.09 | 0.09 | 85 | 1019.8 |
| 20260501195504 | 51 | 0 | 0.0 | 0.0 | 0.00 | 0.09 | 0.09 | 85 | 1019.9 |